createdAt,value
2023-03-26T00:01:26.064Z,101063.31
2023-03-26T00:03:58.067Z,101058.97
2023-03-26T00:06:29.399Z,101066.97
2023-03-26T00:08:59.307Z,101054.25
2023-03-26T00:11:29.616Z,101038.25
2023-03-26T00:13:58.889Z,101037.41
2023-03-26T00:16:31.322Z,101027.31
2023-03-26T00:19:01.517Z,101021.94
2023-03-26T00:21:31.648Z,101016.22
2023-03-26T00:24:04.593Z,100991.53
2023-03-26T00:26:33.841Z,101026.19
2023-03-26T00:29:04.194Z,101021.72
2023-03-26T00:31:34.888Z,101024.84
2023-03-26T00:34:05.775Z,101010.72
2023-03-26T00:36:36.373Z,101007.19
2023-03-26T00:39:06.385Z,100999.31
2023-03-26T00:41:37.336Z,100994.94
2023-03-26T00:44:06.288Z,101003.53
2023-03-26T00:46:36.467Z,100958.47
2023-03-26T00:49:05.147Z,101001.16
2023-03-26T00:51:35.176Z,101003.56
2023-03-26T00:54:03.642Z,101003.75
2023-03-26T00:56:33.054Z,101002.66
2023-03-26T00:59:01.506Z,101005.63
2023-03-26T01:01:31.689Z,100961.97
2023-03-26T01:04:28.532Z,101000.31
2023-03-26T01:07:00.137Z,100998.47
2023-03-26T01:09:34.896Z,100943.47
2023-03-26T01:12:06.783Z,100971.63
2023-03-26T01:14:35.404Z,100978.66
2023-03-26T01:17:07.066Z,100984.16
2023-03-26T01:19:46.960Z,100983.59
2023-03-26T01:22:17.825Z,100961.94
2023-03-26T01:24:53.407Z,100971.06
2023-03-26T01:27:29.804Z,100977.81
2023-03-26T01:30:06.001Z,100966.28
2023-03-26T01:32:46.390Z,100963.34
2023-03-26T01:35:26.147Z,100915.41
2023-03-26T01:38:10.697Z,100961.53
2023-03-26T01:40:47.255Z,100904.97
2023-03-26T01:43:26.062Z,100954.22
2023-03-26T01:45:56.501Z,100952.13
2023-03-26T01:48:31.979Z,100933.84
2023-03-26T01:51:00.571Z,100919.06
2023-03-26T01:53:29.153Z,100910.06
2023-03-26T01:56:07.370Z,100905.28
2023-03-26T01:58:42.761Z,100905.28
2023-03-26T02:01:24.731Z,100915.84
2023-03-26T02:04:00.580Z,100930.03
2023-03-26T02:06:37.757Z,100932.31
2023-03-26T02:09:09.333Z,100921.06
2023-03-26T02:11:41.934Z,100936.22
2023-03-26T02:14:11.616Z,100934.53
2023-03-26T02:16:40.070Z,100938.19
2023-03-26T02:19:15.618Z,100939.63
2023-03-26T02:21:46.042Z,100946.38
2023-03-26T02:24:14.689Z,100927.41
2023-03-26T02:26:44.641Z,100921.63
2023-03-26T02:29:14.120Z,100912.09
2023-03-26T02:31:45.035Z,100902.22
2023-03-26T02:34:13.922Z,100904.44
2023-03-26T02:36:48.597Z,100899.53
2023-03-26T02:39:17.113Z,100880.25
2023-03-26T02:41:54.672Z,100882.22
2023-03-26T02:44:23.459Z,100882.38
2023-03-26T02:47:14.830Z,100867.34
2023-03-26T02:49:55.348Z,100869.44
2023-03-26T02:52:50.328Z,100862.28
2023-03-26T02:55:19.644Z,100864.81
2023-03-26T02:57:50.867Z,100864.81
2023-03-26T03:00:22.941Z,100851.16
2023-03-26T03:02:53.009Z,100852.97
2023-03-26T03:05:34.586Z,100853.81
2023-03-26T03:08:31.416Z,100851.56
2023-03-26T03:11:12.543Z,100847.06
2023-03-26T03:13:52.087Z,100834.69
2023-03-26T03:16:24.277Z,100840.88
2023-03-26T03:18:57.875Z,100833.31
2023-03-26T03:21:47.024Z,100839.94
2023-03-26T03:24:18.561Z,100829.50
2023-03-26T03:26:50.422Z,100827.81
2023-03-26T03:29:37.887Z,100832.75
2023-03-26T03:32:27.904Z,100844.81
2023-03-26T03:35:01.097Z,100842.72
2023-03-26T03:37:29.932Z,100840.91
2023-03-26T03:39:59.985Z,100736.44
2023-03-26T03:42:31.614Z,100829.94
2023-03-26T03:45:04.866Z,100828.53
2023-03-26T03:47:54.275Z,100837.94
2023-03-26T03:50:29.716Z,100841.75
2023-03-26T03:53:18.738Z,100821.38
2023-03-26T03:55:54.260Z,100822.06
2023-03-26T03:58:28.459Z,100821.50
2023-03-26T04:01:04.768Z,100813.78
2023-03-26T04:03:59.531Z,100814.91
2023-03-26T04:06:40.623Z,100745.34
2023-03-26T04:09:10.975Z,100810.13
2023-03-26T04:11:40.234Z,100804.94
2023-03-26T04:14:20.929Z,100806.63
2023-03-26T04:17:13.575Z,100798.03
2023-03-26T04:19:44.303Z,100791.84
2023-03-26T04:22:14.927Z,100789.31
2023-03-26T04:24:55.661Z,100801.81
2023-03-26T04:27:35.571Z,100815.88
2023-03-26T04:30:24.583Z,100810.13
2023-03-26T04:33:04.129Z,100804.50
2023-03-26T04:35:35.873Z,100770.34
2023-03-26T04:38:07.083Z,100808.31
2023-03-26T04:40:42.498Z,100823.47
2023-03-26T04:43:25.352Z,100826.59
2023-03-26T04:46:14.412Z,100823.06
2023-03-26T04:48:53.620Z,100818.13
2023-03-26T04:51:35.204Z,100818.69
2023-03-26T04:54:04.350Z,100829.38
2023-03-26T04:56:46.078Z,100826.41
2023-03-26T04:59:26.161Z,100815.44
2023-03-26T05:01:57.977Z,100821.34
2023-03-26T05:04:30.566Z,100818.53
2023-03-26T05:07:00.226Z,100813.91
2023-03-26T05:09:41.227Z,100802.22
2023-03-26T05:12:16.606Z,100788.72
2023-03-26T05:15:20.502Z,100794.78
2023-03-26T05:17:51.942Z,100798.00
2023-03-26T05:20:31.310Z,100786.19
2023-03-26T05:23:00.005Z,100793.38
2023-03-26T05:25:31.635Z,100778.19
2023-03-26T05:28:02.041Z,100793.66
2023-03-26T05:30:40.655Z,100789.56
2023-03-26T05:33:09.265Z,100788.72
2023-03-26T05:35:46.824Z,100787.03
2023-03-26T05:38:15.593Z,100798.19
2023-03-26T05:40:44.045Z,100786.78
2023-03-26T05:43:17.400Z,100783.00
2023-03-26T05:45:56.354Z,100786.91
2023-03-26T05:48:31.507Z,100791.13
2023-03-26T05:51:01.702Z,100793.81
2023-03-26T05:53:32.813Z,100798.03
2023-03-26T05:56:19.774Z,100794.66
2023-03-26T05:59:07.114Z,100803.22
2023-03-26T06:01:54.661Z,100802.09
2023-03-26T06:05:01.387Z,100792.41
2023-03-26T06:07:39.550Z,100794.22
2023-03-26T06:10:18.470Z,100793.94
2023-03-26T06:12:47.879Z,100794.38
2023-03-26T06:15:16.803Z,100791.84
2023-03-26T06:17:49.270Z,100796.75
2023-03-26T06:20:42.862Z,100794.53
2023-03-26T06:23:23.651Z,100798.56
2023-03-26T06:26:18.380Z,100814.47
2023-03-26T06:28:57.996Z,100823.31
2023-03-26T06:31:44.701Z,100818.94
2023-03-26T06:34:39.211Z,100820.19
2023-03-26T06:37:07.676Z,100813.44
2023-03-26T06:39:38.391Z,100827.22
2023-03-26T06:42:22.157Z,100834.13
2023-03-26T06:45:28.863Z,100827.06
2023-03-26T06:48:16.096Z,100840.88
2023-03-26T06:50:58.290Z,100828.91
2023-03-26T06:53:52.368Z,100841.28
2023-03-26T06:56:45.314Z,100831.28
2023-03-26T06:59:37.492Z,100843.38
2023-03-26T07:02:34.781Z,100844.16
2023-03-26T07:05:26.471Z,100841.88
2023-03-26T07:08:22.220Z,100835.69
2023-03-26T07:11:11.552Z,100823.00
2023-03-26T07:14:13.721Z,100824.41
2023-03-26T07:16:49.092Z,100822.44
2023-03-26T07:19:31.342Z,100833.41
2023-03-26T07:22:00.526Z,100816.56
2023-03-26T07:24:50.771Z,100819.81
2023-03-26T07:27:45.534Z,100825.41
2023-03-26T07:30:26.036Z,100818.88
2023-03-26T07:33:22.945Z,100812.59
2023-03-26T07:36:22.050Z,100822.41
2023-03-26T07:39:28.213Z,100810.25
2023-03-26T07:42:25.617Z,100810.66
2023-03-26T07:45:24.905Z,100807.78
2023-03-26T07:48:17.142Z,100797.41
2023-03-26T07:51:04.513Z,100789.81
2023-03-26T07:54:04.334Z,100798.09
2023-03-26T07:56:54.948Z,100789.56
2023-03-26T07:59:41.464Z,100807.13
2023-03-26T08:03:11.562Z,100783.69
2023-03-26T08:06:27.167Z,100803.94
2023-03-26T08:09:31.061Z,100796.56
2023-03-26T08:12:30.159Z,100781.75
2023-03-26T08:15:05.815Z,100789.16
2023-03-26T08:17:40.761Z,100785.28
2023-03-26T08:20:26.290Z,100777.59
2023-03-26T08:23:03.734Z,100784.88
2023-03-26T08:25:38.046Z,100803.97
2023-03-26T08:28:29.670Z,100789.75
2023-03-26T08:30:58.762Z,100803.72
2023-03-26T08:33:28.822Z,100783.84
2023-03-26T08:35:59.335Z,100789.00
2023-03-26T08:38:27.829Z,100787.75
2023-03-26T08:41:43.226Z,100794.69
2023-03-26T08:45:02.547Z,100792.25
2023-03-26T08:48:09.501Z,100803.38
2023-03-26T08:51:28.351Z,100793.44
2023-03-26T08:54:29.001Z,100784.63
2023-03-26T08:57:17.734Z,100793.81
2023-03-26T09:00:13.593Z,100812.88
2023-03-26T09:03:35.783Z,100811.88
2023-03-26T09:06:41.862Z,100837.00
2023-03-26T09:09:39.855Z,100830.59
2023-03-26T09:12:42.098Z,100847.44
2023-03-26T09:15:51.920Z,100839.16
2023-03-26T09:18:53.793Z,100833.13
2023-03-26T09:21:46.624Z,100829.41
2023-03-26T09:25:05.175Z,100802.25
2023-03-26T09:27:54.635Z,100816.22
2023-03-26T09:30:45.794Z,100818.25
2023-03-26T09:33:52.369Z,100808.59
2023-03-26T09:36:37.357Z,100819.69
2023-03-26T09:39:15.445Z,100812.63
2023-03-26T09:41:53.401Z,100828.97
2023-03-26T09:45:00.444Z,100826.63
2023-03-26T09:47:48.918Z,100811.63
2023-03-26T09:50:35.131Z,100813.22
2023-03-26T09:53:31.758Z,100834.25
2023-03-26T09:56:12.768Z,100834.09
2023-03-26T09:59:04.902Z,100829.72
2023-03-26T10:01:44.121Z,100823.16
2023-03-26T10:04:42.450Z,100835.16
2023-03-26T10:07:30.345Z,100813.75
2023-03-26T10:10:05.873Z,100819.09
2023-03-26T10:12:38.958Z,100817.72
2023-03-26T10:15:31.484Z,100806.03
2023-03-26T10:18:27.036Z,100815.59
2023-03-26T10:21:07.177Z,100803.63
2023-03-26T10:24:08.780Z,100802.50
2023-03-26T10:27:09.253Z,100819.44
2023-03-26T10:29:59.398Z,100818.25
2023-03-26T10:32:34.962Z,100810.88
2023-03-26T10:35:24.734Z,100808.53
2023-03-26T10:38:07.437Z,100803.50
2023-03-26T10:40:43.835Z,100802.22
2023-03-26T10:43:36.284Z,100802.91
2023-03-26T10:46:26.328Z,100798.22
2023-03-26T10:49:10.019Z,100803.97
2023-03-26T10:51:51.486Z,100801.19
2023-03-26T10:54:33.500Z,100811.84
2023-03-26T10:57:05.078Z,100807.53
2023-03-26T10:59:33.487Z,100811.94
2023-03-26T11:02:29.461Z,100809.59
2023-03-26T11:05:19.063Z,100804.28
2023-03-26T11:07:54.084Z,100789.50
2023-03-26T11:10:42.420Z,100798.44
2023-03-26T11:13:22.967Z,100810.25
2023-03-26T11:15:58.072Z,100811.44
2023-03-26T11:18:35.822Z,100802.69
2023-03-26T11:21:19.794Z,100796.00
2023-03-26T11:24:06.342Z,100788.56
2023-03-26T11:26:43.804Z,100777.81
2023-03-26T11:29:31.378Z,100777.81
2023-03-26T11:32:06.773Z,100776.47
2023-03-26T11:34:39.988Z,100781.16
2023-03-26T11:37:16.594Z,100755.94
2023-03-26T11:39:52.787Z,100776.13
2023-03-26T11:42:25.058Z,100770.56
2023-03-26T11:44:57.463Z,100773.09
2023-03-26T11:47:32.383Z,100683.25
2023-03-26T11:50:04.950Z,100777.44
2023-03-26T11:52:33.446Z,100785.66
2023-03-26T11:55:03.499Z,100782.25
2023-03-26T11:57:35.872Z,100748.00
2023-03-26T12:00:16.794Z,100765.09
2023-03-26T12:02:46.807Z,100772.41
2023-03-26T12:05:21.205Z,100755.97
2023-03-26T12:07:56.113Z,100761.19
2023-03-26T12:10:32.260Z,100769.69
2023-03-26T12:13:03.081Z,100754.69
2023-03-26T12:15:32.554Z,100740.72
2023-03-26T12:18:24.895Z,100736.19
2023-03-26T12:21:05.512Z,100756.28
2023-03-26T12:23:44.350Z,100755.75
2023-03-26T12:26:17.667Z,100750.00
2023-03-26T12:28:50.106Z,100754.44
2023-03-26T12:31:20.541Z,100724.28
2023-03-26T12:34:07.809Z,100730.16
2023-03-26T12:36:39.278Z,100726.03
2023-03-26T12:40:07.551Z,100725.69
2023-03-26T12:44:51.502Z,100730.28
2023-03-26T12:45:23.949Z,100723.41
2023-03-26T12:48:00.766Z,100707.28
2023-03-26T12:50:45.892Z,100702.44
2023-03-26T12:53:32.351Z,100699.25
2023-03-26T12:56:07.662Z,100699.56
2023-03-26T12:58:56.863Z,100724.25
2023-03-26T13:01:33.398Z,100707.44
2023-03-26T13:04:51.929Z,100722.91
2023-03-26T13:07:41.749Z,100713.31
2023-03-26T13:10:30.590Z,100738.25
2023-03-26T13:13:17.148Z,100726.31
2023-03-26T13:15:52.694Z,100703.59
2023-03-26T13:18:35.894Z,100744.09
2023-03-26T13:21:12.285Z,100748.81
2023-03-26T13:23:51.836Z,100752.28
2023-03-26T13:26:33.653Z,100725.00
2023-03-26T13:29:09.834Z,100733.09
2023-03-26T13:31:50.952Z,100719.19
2023-03-26T13:34:31.416Z,100732.00
2023-03-26T13:37:12.902Z,100710.19
2023-03-26T13:39:54.932Z,100725.03
2023-03-26T13:42:40.631Z,100725.78
2023-03-26T13:45:24.063Z,100723.53
2023-03-26T13:47:58.507Z,100716.09
2023-03-26T13:50:29.747Z,100724.47
2023-03-26T13:53:03.778Z,100728.59
2023-03-26T13:55:36.289Z,100692.88
2023-03-26T13:58:12.669Z,100699.19
2023-03-26T14:00:54.859Z,100674.53
2023-03-26T14:03:35.761Z,100650.44
2023-03-26T14:06:09.767Z,100657.75
2023-03-26T14:08:43.952Z,100658.53
2023-03-26T14:11:17.771Z,100651.06
2023-03-26T14:13:54.109Z,100638.13
2023-03-26T14:16:27.769Z,100513.72
2023-03-26T14:19:07.715Z,100600.53
2023-03-26T14:22:00.131Z,100599.97
2023-03-26T14:25:08.545Z,100578.16
2023-03-26T14:27:52.113Z,100585.41
2023-03-26T14:30:57.356Z,100576.84
2023-03-26T14:33:48.024Z,100568.53
2023-03-26T14:36:30.696Z,100572.25
2023-03-26T14:39:15.498Z,100555.97
2023-03-26T14:41:50.091Z,100561.19
2023-03-26T14:44:52.312Z,100552.91
2023-03-26T14:47:22.467Z,100563.50
2023-03-26T14:50:27.207Z,100548.31
2023-03-26T14:53:01.235Z,100552.50
2023-03-26T14:56:05.370Z,100553.38
2023-03-26T14:59:09.884Z,100555.75
2023-03-26T15:02:18.928Z,100537.09
2023-03-26T15:05:23.827Z,100523.78
2023-03-26T15:08:34.072Z,100528.09
2023-03-26T15:11:22.653Z,100538.84
2023-03-26T15:14:31.711Z,100538.53
2023-03-26T15:17:34.726Z,100533.00
2023-03-26T15:20:38.764Z,100519.69
2023-03-26T15:23:38.876Z,100529.72
2023-03-26T15:26:54.122Z,100539.81
2023-03-26T15:29:43.688Z,100551.38
2023-03-26T15:32:52.835Z,100549.03
2023-03-26T15:35:44.672Z,100569.38
2023-03-26T15:38:47.148Z,100563.41
2023-03-26T15:41:18.744Z,100581.03
2023-03-26T15:44:23.438Z,100568.19
2023-03-26T15:47:18.775Z,100573.03
2023-03-26T15:49:56.167Z,100560.75
2023-03-26T15:52:30.621Z,100549.31
2023-03-26T15:55:07.091Z,100554.91
2023-03-26T15:57:44.148Z,100547.47
2023-03-26T16:00:23.784Z,100543.84
2023-03-26T16:03:09.161Z,100532.38
2023-03-26T16:06:00.103Z,100513.91
2023-03-26T16:08:38.672Z,100507.09
2023-03-26T16:11:12.852Z,100496.75
2023-03-26T16:13:43.741Z,100525.78
2023-03-26T16:16:21.053Z,100502.06
2023-03-26T16:18:55.352Z,100499.34
2023-03-26T16:21:56.226Z,100498.19
2023-03-26T16:24:32.069Z,100493.81
2023-03-26T16:27:30.447Z,100475.44
2023-03-26T16:30:20.206Z,100474.59
2023-03-26T16:32:55.448Z,100465.78
2023-03-26T16:35:47.895Z,100456.75
2023-03-26T16:38:18.613Z,100449.47
2023-03-26T16:41:00.483Z,100447.91
2023-03-26T16:43:46.884Z,100433.53
2023-03-26T16:46:29.832Z,100444.28
2023-03-26T16:49:04.504Z,100450.97
2023-03-26T16:51:54.845Z,100455.88
2023-03-26T16:54:29.411Z,100433.22
2023-03-26T16:57:02.587Z,100435.06
2023-03-26T17:00:05.495Z,100424.56
2023-03-26T17:02:53.516Z,100438.25
2023-03-26T17:05:35.178Z,100422.19
2023-03-26T17:08:13.407Z,100417.69
2023-03-26T17:10:48.520Z,100423.69
2023-03-26T17:13:24.412Z,100412.47
2023-03-26T17:16:02.781Z,100403.25
2023-03-26T17:18:46.287Z,100390.16
2023-03-26T17:21:18.408Z,100388.84
2023-03-26T17:24:05.065Z,100380.97
2023-03-26T17:26:45.560Z,100391.44
2023-03-26T17:29:27.472Z,100391.84
2023-03-26T17:32:03.546Z,100382.44
2023-03-26T17:35:02.362Z,100391.22
2023-03-26T17:37:41.111Z,100387.69
2023-03-26T17:40:45.662Z,100381.19
2023-03-26T17:43:33.963Z,100391.44
2023-03-26T17:46:04.166Z,100375.69
2023-03-26T17:48:37.858Z,100376.69
2023-03-26T17:51:28.313Z,100383.91
2023-03-26T17:53:57.656Z,100378.41
2023-03-26T17:56:32.357Z,100390.50
2023-03-26T17:59:12.158Z,100376.47
2023-03-26T18:01:44.351Z,100380.19
2023-03-26T18:04:19.884Z,100371.47
2023-03-26T18:07:15.517Z,100388.94
2023-03-26T18:10:00.458Z,100381.38
2023-03-26T18:12:45.693Z,100386.75
2023-03-26T18:15:42.718Z,100411.47
2023-03-26T18:18:18.474Z,100389.97
2023-03-26T18:20:49.269Z,100390.16
2023-03-26T18:23:26.771Z,100387.81
2023-03-26T18:25:58.804Z,100386.31
2023-03-26T18:28:32.939Z,100379.59
2023-03-26T18:31:10.605Z,100377.91
2023-03-26T18:33:47.420Z,100374.22
2023-03-26T18:36:18.702Z,100373.38
2023-03-26T18:38:49.064Z,100387.31
2023-03-26T18:41:25.316Z,100403.78
2023-03-26T18:43:53.816Z,100384.16
2023-03-26T18:46:24.930Z,100377.63
2023-03-26T18:48:55.311Z,100366.22
2023-03-26T18:51:23.922Z,100361.19
2023-03-26T18:53:57.083Z,100361.03
2023-03-26T18:56:31.794Z,100384.00
2023-03-26T18:59:02.558Z,100235.78
2023-03-26T19:01:33.404Z,100384.69
2023-03-26T19:04:05.434Z,100366.06
2023-03-26T19:06:38.486Z,100358.50
2023-03-26T19:09:27.959Z,100327.00
2023-03-26T19:12:06.090Z,100366.06
2023-03-26T19:14:37.160Z,100382.84
2023-03-26T19:17:08.299Z,100369.91
2023-03-26T19:19:39.019Z,100385.84
2023-03-26T19:22:08.724Z,100377.31
2023-03-26T19:24:38.905Z,100394.56
2023-03-26T19:27:07.523Z,100410.19
2023-03-26T19:29:36.793Z,100415.53
2023-03-26T19:32:06.880Z,100386.03
2023-03-26T19:34:39.458Z,100404.34
2023-03-26T19:37:19.278Z,100408.00
2023-03-26T19:39:51.300Z,100431.00
2023-03-26T19:42:23.406Z,100463.13
2023-03-26T19:44:53.814Z,100470.13
2023-03-26T19:47:35.408Z,100488.50
2023-03-26T19:50:25.570Z,100500.50
2023-03-26T19:53:16.801Z,100495.88
2023-03-26T19:55:57.422Z,100437.84
2023-03-26T19:58:27.495Z,100387.13
2023-03-26T20:00:57.184Z,100420.56
2023-03-26T20:03:31.801Z,100447.91
2023-03-26T20:06:00.344Z,100473.63
2023-03-26T20:08:31.000Z,100399.66
2023-03-26T20:11:00.830Z,100474.81
2023-03-26T20:13:31.523Z,100471.41
2023-03-26T20:16:06.555Z,100420.06
2023-03-26T20:18:35.585Z,100436.25
2023-03-26T20:21:10.200Z,100439.22
2023-03-26T20:23:39.212Z,100436.94
2023-03-26T20:26:12.974Z,100462.84
2023-03-26T20:28:47.856Z,100454.28
2023-03-26T20:31:19.376Z,100466.50
2023-03-26T20:33:50.930Z,100476.91
2023-03-26T20:36:33.819Z,100477.13
2023-03-26T20:39:05.824Z,100497.19
2023-03-26T20:41:38.229Z,100511.94
2023-03-26T20:44:13.881Z,100517.53
2023-03-26T20:46:43.851Z,100518.06
2023-03-26T20:49:13.051Z,100530.59
2023-03-26T20:51:42.274Z,100527.47
2023-03-26T20:54:16.147Z,100545.22
2023-03-26T20:56:47.957Z,100513.88
2023-03-26T20:59:22.277Z,100549.75
2023-03-26T21:01:51.988Z,100550.91
2023-03-26T21:04:21.560Z,100542.88
2023-03-26T21:06:50.137Z,100550.09
2023-03-26T21:09:23.957Z,100556.44
2023-03-26T21:12:01.929Z,100560.03
2023-03-26T21:14:34.578Z,100569.22
2023-03-26T21:17:04.792Z,100572.56
2023-03-26T21:19:34.043Z,100577.47
2023-03-26T21:22:13.804Z,100579.34
2023-03-26T21:25:00.235Z,100591.59
2023-03-26T21:27:36.462Z,100589.91
2023-03-26T21:30:13.934Z,100610.72
2023-03-26T21:32:44.209Z,100597.47
2023-03-26T21:35:15.167Z,100601.47
2023-03-26T21:37:45.735Z,100569.59
2023-03-26T21:40:17.142Z,100575.94
2023-03-26T21:42:49.679Z,100592.84
2023-03-26T21:45:19.837Z,100567.06
2023-03-26T21:47:49.456Z,100590.00
2023-03-26T21:50:20.763Z,100534.44
2023-03-26T21:52:50.491Z,100596.97
2023-03-26T21:55:20.550Z,100604.75
2023-03-26T21:58:14.648Z,100595.19
2023-03-26T22:00:51.864Z,100600.19
2023-03-26T22:03:26.608Z,100608.66
2023-03-26T22:06:01.307Z,100583.59
2023-03-26T22:08:32.878Z,100616.78
2023-03-26T22:11:01.607Z,100612.19
2023-03-26T22:13:31.992Z,100614.84
2023-03-26T22:16:01.015Z,100614.16
2023-03-26T22:18:30.783Z,100627.81
2023-03-26T22:21:00.099Z,100627.56
2023-03-26T22:23:36.454Z,100627.84
2023-03-26T22:26:05.364Z,100627.00
2023-03-26T22:28:35.644Z,100613.78
2023-03-26T22:31:08.689Z,100612.03
2023-03-26T22:33:37.409Z,100618.59
2023-03-26T22:36:06.477Z,100609.88
2023-03-26T22:38:53.912Z,100591.63
2023-03-26T22:41:22.665Z,100579.50
2023-03-26T22:43:54.869Z,100589.44
2023-03-26T22:46:24.385Z,100614.34
2023-03-26T22:48:52.852Z,100647.97
2023-03-26T22:51:21.441Z,100665.53
2023-03-26T22:53:49.832Z,100660.19
2023-03-26T22:56:18.920Z,100662.88
2023-03-26T22:58:48.195Z,100662.16
2023-03-26T23:01:20.455Z,100672.88
2023-03-26T23:03:48.906Z,100681.03
2023-03-26T23:06:17.988Z,100699.34
2023-03-26T23:08:46.454Z,100714.38
2023-03-26T23:11:17.684Z,100675.66
2023-03-26T23:13:47.971Z,100720.28
2023-03-26T23:16:19.300Z,100724.06
2023-03-26T23:18:47.890Z,100718.16
2023-03-26T23:21:18.571Z,100715.78
2023-03-26T23:23:47.751Z,100709.47
2023-03-26T23:26:16.808Z,100719.72
2023-03-26T23:28:45.281Z,100715.13
2023-03-26T23:31:14.245Z,100730.88
2023-03-26T23:33:46.686Z,100728.19
2023-03-26T23:36:18.353Z,100731.56
2023-03-26T23:38:49.402Z,100686.81
2023-03-26T23:41:19.775Z,100700.13
2023-03-26T23:43:53.737Z,100744.94
2023-03-26T23:46:25.253Z,100760.97
2023-03-26T23:48:55.204Z,100768.59
2023-03-26T23:51:24.199Z,100772.53
2023-03-26T23:53:53.905Z,100792.38
2023-03-26T23:56:22.374Z,100797.16
2023-03-26T23:58:50.962Z,100801.81
